Aérodrome :
LOGIN :

S'inscrire | Disclaimer

   EN    FR    IT 

 










Légende :    VFR   VFR Marginal   IFR   IFR Intensif   IFR Très Intensif
Visi : 
Plafond : 
>= 8 km
>= 3000ft
5 à 8 km
1000 à 3000 ft
1500m à 5 km
500 à 1000 ft
800 à 1500m
200 à 500 ft
< 800m
< 200 ft
Symboles :   Orages  Brouillard  Fortes neiges  Fortes précipitations  Vent > 20 kt
SIGMETs :   Divers  Orages  Givrage  Turbulence  Onde Orograph.  Cendres Volcan.






- Altitude de l'aérodrome : 1455 ft


ETIH - Hohenfels Army Air Field

DERNIER METAR :
  • 230805Z AUTO 11005KT 1800 BR OVC005 12/12 A3010 RMK AO2 SLP197 $

METARs EXPIRÉS :
  • 230756Z AUTO 10005KT 1600 BR OVC005 12/12 A3010 RMK AO2 SLP197 T01240124 RVRNO $
  • 230739Z AUTO 08003KT 1600 BR VV006 12/12 A3011 RMK AO2 SLP200 RVRNO $
  • 230716Z AUTO 07003KT 1200 BR VV005 12/12 A3011 RMK AO2 CIG 003V005 SLP200 RVRNO $
  • 230638Z AUTO 12003KT 0800 FG VV003 12/12 A3011 RMK AO2 SLP200 RVRNO $
  • 230628Z AUTO 00000KT 0600 FG VV003 12/12 A3012 RMK AO2 SLP202 RVRNO $
  • 230600Z AUTO 00000KT 0400 FG VV002 11/11 A3011 RMK AO2 SLP198 RVRNO $
  • 230557Z AUTO 00000KT 0200 FG VV002 11/11 A3011 RMK AO2 SLP198 RVRNO $
  • 230543Z AUTO 00000KT 0600 FG VV001 11/11 A3011 RMK AO2 SLP198 RVRNO $
  • 230534Z AUTO 00000KT 0800 FG VV001 11/11 A3011 RMK AO2 SLP198 RVRNO $
  • 230522Z AUTO 00000KT 0600 FG VV001 11/11 A3011 RMK AO2 SLP198 RVRNO $

Prévision TAF périmée.



MET'MAP, la Météo Aéronautique d'un coup d'oeil ! - Copyright ORBIFLY Décembre 2007 - Disclaimer

ORBIFLY MET'MAP TEAM :

Programmation & Développement : Alexandra Zaïnal
Conception & Développement : Baudouin d'Aumeries
Co-Programmation & Développement : Marc-Olivier Méhu
Soutien technique & logistique : Manuel Goepfert

Contact : metmap@orbifly.com




SOURCES & CREDITS :

   NOAA